Sigfox identifier Datetime Temperature Humidity SNR
003B835B 2018-10-09 09:23:58 20.5 46 20.5
003B835B 2018-10-09 08:16:49 20.5 43 20.5
003B835B 2018-10-09 07:09:47 20.4 42 20.4
003B835B 2018-10-09 06:02:45 20.5 42 20.3
003B835B 2018-10-09 04:55:42 20.4 42 20.1
003B835B 2018-10-09 01:34:37 20.5 40 20.1
003B835B 2018-10-09 00:27:36 20.5 40 19.9
003B835B 2018-10-08 23:20:35 20.5 39 20
003B835B 2018-10-08 22:13:32 20.5 39 19.8
003B835B 2018-10-08 21:06:31 20.5 39 19.8
003B835B 2018-10-08 19:59:31 20.5 39 19.8
003B835B 2018-10-08 18:52:30 20.5 38 19.7
003B835B 2018-10-08 17:45:26 20.5 38 19.8
003B835B 2018-10-08 16:38:23 20.6 37 19.9
003B835B 2018-10-08 15:31:16 20.5 36 20
003B835B 2018-10-08 14:24:07 20.5 35 20.1
003B835B 2018-10-08 13:17:03 20.5 34 20.1
003B835B 2018-10-08 12:09:54 20.7 33 18.1
003B835B 2018-10-08 11:02:51 20.9 36 18.3
003B835B 2018-10-08 08:48:43 20.3 28 18.4
003B835B 2018-10-08 07:41:40 20.3 28 18.4
003B835B 2018-10-08 06:34:33 20.5 33 18.5
003B835B 2018-10-08 05:27:28 20.5 34 18.5
003B835B 2018-10-08 04:20:24 20.4 34 18.5
003B835B 2018-10-08 03:13:23 20.4 35 18.5
003B835B 2018-10-08 02:06:19 20.5 35 18.4
003B835B 2018-10-08 00:59:14 20.5 36 18.4
003B835B 2018-10-07 23:52:10 20.5 36 18.5
003B835B 2018-10-07 22:45:06 20.5 37 18.7
003B835B 2018-10-07 21:38:07 20.5 37 18.5
003B835B 2018-10-07 20:31:03 20.7 38 18.3
003B835B 2018-10-07 19:24:02 20.7 38 18.4
003B835B 2018-10-07 18:16:58 20.8 38 18.1
003B835B 2018-10-07 17:09:57 20.7 37 18
003B835B 2018-10-07 16:02:50 20.5 38 17.8
003B835B 2018-10-07 14:55:49 20.5 38 17.8
003B835B 2018-10-07 13:48:47 20.5 38 17.7
003B835B 2018-10-07 12:41:42 20.5 38 17.4
003B835B 2018-10-07 11:34:39 20.5 38 17.2
003B835B 2018-10-07 10:27:35 20.5 38 17.2
003B835B 2018-10-07 09:20:32 20.5 38 17.2
003B835B 2018-10-07 08:13:30 20.5 39 17.4
003B835B 2018-10-07 07:06:27 20.5 39 17.3
003B835B 2018-10-07 05:59:26 20.5 39 17.1
003B835B 2018-10-07 04:52:21 20.5 39 16.8
003B835B 2018-10-07 03:45:17 20.5 39 16.8
003B835B 2018-10-07 02:38:14 20.5 40 16.9
003B835B 2018-10-07 01:31:08 20.5 40 16.6
003B835B 2018-10-07 00:24:02 20.6 40 16.9
003B835B 2018-10-06 23:16:58 20.6 40 16.6
003B835B 2018-10-06 22:09:55 20.7 40 19.2
003B835B 2018-10-06 21:02:52 20.7 40 19.1
003B835B 2018-10-06 19:55:51 20.7 40 19.1
003B835B 2018-10-06 18:48:47 20.6 40 19.1
003B835B 2018-10-06 17:41:45 20.7 40 19.2
003B835B 2018-10-06 16:34:43 20.7 40 19.4
003B835B 2018-10-06 15:27:41 20.7 40 19.3
003B835B 2018-10-06 14:20:39 20.7 40 19.5
003B835B 2018-10-06 13:13:39 20.7 40 19.7
003B835B 2018-10-06 12:06:34 20.7 39 19.8
003B835B 2018-10-06 10:59:34 20.7 39 20
003B835B 2018-10-06 09:52:34 20.7 39 20.3
003B835B 2018-10-06 08:45:34 20.6 40 20.5
003B835B 2018-10-06 07:38:33 20.5 40 20.8
003B835B 2018-10-06 06:31:29 20.7 41 20.9
003B835B 2018-10-06 05:24:28 20.6 41 21.2
003B835B 2018-10-06 04:17:24 20.5 41 21.4
003B835B 2018-10-06 03:10:24 20.6 42 21.7
003B835B 2018-10-06 02:03:27 20.6 42 21.9
003B835B 2018-10-06 00:56:28 20.7 42 22.5
003B835B 2018-10-05 23:49:29 20.7 43 23.1
003B835B 2018-10-05 22:42:30 20.7 44 23.7
003B835B 2018-10-05 21:35:27 20.8 44 24.6
003B835B 2018-10-05 20:28:26 21 45 25.4
003B835B 2018-10-05 19:21:21 21 45 27.1
003B835B 2018-10-05 18:14:12 21.4 45 15.1
003B835B 2018-10-05 17:07:02 21.8 53 0